sensor_id;sensor_type;location;lat;lon;timestamp;pressure;altitude;pressure_sealevel;temperature
76713;BMP280;65640;43.154;25.658;2023-06-19T00:00:26;100498.91;;;19.06
76713;BMP280;65640;43.154;25.658;2023-06-19T00:02:51;100497.47;;;19.09
76713;BMP280;65640;43.154;25.658;2023-06-19T00:05:17;100494.38;;;19.07
76713;BMP280;65640;43.154;25.658;2023-06-19T00:07:42;100496.78;;;19.00
76713;BMP280;65640;43.154;25.658;2023-06-19T00:10:08;100501.13;;;19.04
76713;BMP280;65640;43.154;25.658;2023-06-19T00:12:33;100503.41;;;19.06
76713;BMP280;65640;43.154;25.658;2023-06-19T00:14:59;100503.00;;;19.04
76713;BMP280;65640;43.154;25.658;2023-06-19T00:17:24;100508.72;;;19.06
76713;BMP280;65640;43.154;25.658;2023-06-19T00:19:52;100504.75;;;19.00
76713;BMP280;65640;43.154;25.658;2023-06-19T00:22:18;100508.03;;;18.97
76713;BMP280;65640;43.154;25.658;2023-06-19T00:24:43;100510.56;;;19.14
76713;BMP280;65640;43.154;25.658;2023-06-19T00:27:09;100505.25;;;19.14
76713;BMP280;65640;43.154;25.658;2023-06-19T00:29:34;100505.69;;;19.16
76713;BMP280;65640;43.154;25.658;2023-06-19T00:31:59;100507.22;;;19.17
76713;BMP280;65640;43.154;25.658;2023-06-19T00:34:25;100505.34;;;19.17
76713;BMP280;65640;43.154;25.658;2023-06-19T00:36:51;100503.03;;;19.28
76713;BMP280;65640;43.154;25.658;2023-06-19T00:39:24;100499.03;;;19.10
76713;BMP280;65640;43.154;25.658;2023-06-19T00:41:53;100500.81;;;19.18
76713;BMP280;65640;43.154;25.658;2023-06-19T00:44:19;100503.47;;;19.18
76713;BMP280;65640;43.154;25.658;2023-06-19T00:46:44;100504.13;;;19.15
76713;BMP280;65640;43.154;25.658;2023-06-19T00:49:10;100500.47;;;19.07
76713;BMP280;65640;43.154;25.658;2023-06-19T00:51:37;100496.50;;;19.13
76713;BMP280;65640;43.154;25.658;2023-06-19T00:54:03;100494.16;;;19.12
76713;BMP280;65640;43.154;25.658;2023-06-19T00:56:29;100494.84;;;19.09
76713;BMP280;65640;43.154;25.658;2023-06-19T00:58:55;100493.94;;;19.05
76713;BMP280;65640;43.154;25.658;2023-06-19T01:01:21;100494.38;;;19.07
76713;BMP280;65640;43.154;25.658;2023-06-19T01:03:49;100499.88;;;19.02
76713;BMP280;65640;43.154;25.658;2023-06-19T01:06:23;100499.25;;;19.05
76713;BMP280;65640;43.154;25.658;2023-06-19T01:08:57;100495.81;;;19.04
76713;BMP280;65640;43.154;25.658;2023-06-19T01:11:28;100493.47;;;19.03
76713;BMP280;65640;43.154;25.658;2023-06-19T01:14:08;100496.41;;;18.89
76713;BMP280;65640;43.154;25.658;2023-06-19T01:16:34;100492.09;;;18.84
76713;BMP280;65640;43.154;25.658;2023-06-19T01:19:01;100493.97;;;18.84
76713;BMP280;65640;43.154;25.658;2023-06-19T01:21:27;100498.25;;;18.76
76713;BMP280;65640;43.154;25.658;2023-06-19T01:23:52;100493.38;;;18.78
76713;BMP280;65640;43.154;25.658;2023-06-19T01:26:22;100492.09;;;18.84
76713;BMP280;65640;43.154;25.658;2023-06-19T01:28:51;100495.59;;;18.76
76713;BMP280;65640;43.154;25.658;2023-06-19T01:31:25;100496.50;;;18.80
76713;BMP280;65640;43.154;25.658;2023-06-19T01:33:52;100493.53;;;18.82
76713;BMP280;65640;43.154;25.658;2023-06-19T01:36:19;100495.47;;;18.73
76713;BMP280;65640;43.154;25.658;2023-06-19T01:38:47;100497.34;;;18.72
76713;BMP280;65640;43.154;25.658;2023-06-19T01:41:14;100493.91;;;18.72
76713;BMP280;65640;43.154;25.658;2023-06-19T01:43:40;100506.19;;;18.76
76713;BMP280;65640;43.154;25.658;2023-06-19T01:46:06;100498.13;;;18.73
76713;BMP280;65640;43.154;25.658;2023-06-19T01:48:31;100502.00;;;18.75
76713;BMP280;65640;43.154;25.658;2023-06-19T01:50:57;100502.88;;;18.67
76713;BMP280;65640;43.154;25.658;2023-06-19T01:53:22;100508.94;;;18.68
76713;BMP280;65640;43.154;25.658;2023-06-19T01:55:47;100509.56;;;18.65
76713;BMP280;65640;43.154;25.658;2023-06-19T01:58:13;100511.66;;;18.59
76713;BMP280;65640;43.154;25.658;2023-06-19T02:00:38;100511.19;;;18.57
76713;BMP280;65640;43.154;25.658;2023-06-19T02:03:04;100514.88;;;18.65
76713;BMP280;65640;43.154;25.658;2023-06-19T02:05:31;100510.53;;;18.60
76713;BMP280;65640;43.154;25.658;2023-06-19T02:07:56;100515.84;;;18.60
76713;BMP280;65640;43.154;25.658;2023-06-19T02:10:22;100514.13;;;18.64
76713;BMP280;65640;43.154;25.658;2023-06-19T02:12:47;100516.97;;;18.59
76713;BMP280;65640;43.154;25.658;2023-06-19T02:15:13;100518.25;;;18.53
76713;BMP280;65640;43.154;25.658;2023-06-19T02:17:38;100521.97;;;18.52
76713;BMP280;65640;43.154;25.658;2023-06-19T02:20:04;100517.16;;;18.54
76713;BMP280;65640;43.154;25.658;2023-06-19T02:22:34;100517.78;;;18.51
76713;BMP280;65640;43.154;25.658;2023-06-19T02:24:59;100519.53;;;18.47
76713;BMP280;65640;43.154;25.658;2023-06-19T02:27:25;100533.25;;;18.49
76713;BMP280;65640;43.154;25.658;2023-06-19T02:29:50;100525.38;;;18.40
76713;BMP280;65640;43.154;25.658;2023-06-19T02:32:16;100526.16;;;18.32
76713;BMP280;65640;43.154;25.658;2023-06-19T02:34:41;100525.25;;;18.28
76713;BMP280;65640;43.154;25.658;2023-06-19T02:37:07;100536.94;;;18.27
76713;BMP280;65640;43.154;25.658;2023-06-19T02:39:33;100539.19;;;18.25
76713;BMP280;65640;43.154;25.658;2023-06-19T02:41:58;100545.38;;;18.29
76713;BMP280;65640;43.154;25.658;2023-06-19T02:44:24;100542.41;;;18.31
76713;BMP280;65640;43.154;25.658;2023-06-19T02:46:50;100542.78;;;18.21
76713;BMP280;65640;43.154;25.658;2023-06-19T02:49:15;100542.72;;;18.29
76713;BMP280;65640;43.154;25.658;2023-06-19T02:51:41;100552.25;;;18.30
76713;BMP280;65640;43.154;25.658;2023-06-19T02:54:06;100542.84;;;18.33
76713;BMP280;65640;43.154;25.658;2023-06-19T02:56:31;100546.09;;;18.38
76713;BMP280;65640;43.154;25.658;2023-06-19T02:58:57;100535.06;;;18.36
76713;BMP280;65640;43.154;25.658;2023-06-19T03:01:23;100538.66;;;18.32
76713;BMP280;65640;43.154;25.658;2023-06-19T03:03:48;100538.09;;;18.47
76713;BMP280;65640;43.154;25.658;2023-06-19T03:06:14;100535.19;;;18.40
76713;BMP280;65640;43.154;25.658;2023-06-19T03:08:39;100537.91;;;18.52
76713;BMP280;65640;43.154;25.658;2023-06-19T03:11:05;100531.50;;;18.53
76713;BMP280;65640;43.154;25.658;2023-06-19T03:13:50;100531.63;;;18.57
76713;BMP280;65640;43.154;25.658;2023-06-19T03:16:16;100526.63;;;18.55
76713;BMP280;65640;43.154;25.658;2023-06-19T03:18:45;100525.09;;;18.54
76713;BMP280;65640;43.154;25.658;2023-06-19T03:21:11;100523.50;;;18.62
76713;BMP280;65640;43.154;25.658;2023-06-19T03:23:36;100514.75;;;18.61
76713;BMP280;65640;43.154;25.658;2023-06-19T03:26:02;100516.97;;;18.59
76713;BMP280;65640;43.154;25.658;2023-06-19T03:28:28;100520.72;;;18.58
76713;BMP280;65640;43.154;25.658;2023-06-19T03:30:53;100521.34;;;18.55
76713;BMP280;65640;43.154;25.658;2023-06-19T03:33:18;100521.63;;;18.62
76713;BMP280;65640;43.154;25.658;2023-06-19T03:35:44;100528.78;;;18.62
76713;BMP280;65640;43.154;25.658;2023-06-19T03:38:09;100523.53;;;18.53
76713;BMP280;65640;43.154;25.658;2023-06-19T03:40:35;100526.78;;;18.59
76713;BMP280;65640;43.154;25.658;2023-06-19T03:43:00;100528.00;;;18.61
76713;BMP280;65640;43.154;25.658;2023-06-19T03:45:26;100533.91;;;18.67
76713;BMP280;65640;43.154;25.658;2023-06-19T03:47:53;100528.06;;;18.73
76713;BMP280;65640;43.154;25.658;2023-06-19T03:50:18;100537.88;;;18.93
76713;BMP280;65640;43.154;25.658;2023-06-19T03:52:43;100539.06;;;19.05
76713;BMP280;65640;43.154;25.658;2023-06-19T03:55:09;100540.19;;;19.16
76713;BMP280;65640;43.154;25.658;2023-06-19T03:57:34;100539.19;;;19.20
76713;BMP280;65640;43.154;25.658;2023-06-19T04:00:00;100540.91;;;19.37
76713;BMP280;65640;43.154;25.658;2023-06-19T04:02:25;100542.91;;;19.52
76713;BMP280;65640;43.154;25.658;2023-06-19T04:04:51;100544.72;;;19.60
76713;BMP280;65640;43.154;25.658;2023-06-19T04:07:16;100546.47;;;19.68
76713;BMP280;65640;43.154;25.658;2023-06-19T04:09:42;100547.16;;;19.77
76713;BMP280;65640;43.154;25.658;2023-06-19T04:12:08;100547.59;;;19.79
76713;BMP280;65640;43.154;25.658;2023-06-19T04:14:33;100541.81;;;19.89
76713;BMP280;65640;43.154;25.658;2023-06-19T04:16:58;100547.16;;;19.77
76713;BMP280;65640;43.154;25.658;2023-06-19T04:19:24;100549.81;;;19.77
76713;BMP280;65640;43.154;25.658;2023-06-19T04:21:49;100550.38;;;19.83
76713;BMP280;65640;43.154;25.658;2023-06-19T04:24:15;100550.25;;;20.04
76713;BMP280;65640;43.154;25.658;2023-06-19T04:26:40;100546.34;;;20.25
76713;BMP280;65640;43.154;25.658;2023-06-19T04:29:07;100547.41;;;20.49
76713;BMP280;65640;43.154;25.658;2023-06-19T04:31:33;100547.69;;;20.59
76713;BMP280;65640;43.154;25.658;2023-06-19T04:34:05;100545.78;;;20.72
76713;BMP280;65640;43.154;25.658;2023-06-19T04:36:31;100550.16;;;20.80
76713;BMP280;65640;43.154;25.658;2023-06-19T04:38:57;100557.66;;;20.90
76713;BMP280;65640;43.154;25.658;2023-06-19T04:41:23;100569.59;;;20.96
76713;BMP280;65640;43.154;25.658;2023-06-19T04:43:48;100566.22;;;20.83
76713;BMP280;65640;43.154;25.658;2023-06-19T04:46:14;100564.44;;;20.87
76713;BMP280;65640;43.154;25.658;2023-06-19T04:48:45;100573.88;;;20.85
76713;BMP280;65640;43.154;25.658;2023-06-19T04:51:18;100574.81;;;20.77
76713;BMP280;65640;43.154;25.658;2023-06-19T04:53:47;100576.84;;;20.96
76713;BMP280;65640;43.154;25.658;2023-06-19T04:56:14;100577.53;;;20.92
76713;BMP280;65640;43.154;25.658;2023-06-19T04:58:40;100584.56;;;21.01
76713;BMP280;65640;43.154;25.658;2023-06-19T05:01:14;100582.19;;;20.83
76713;BMP280;65640;43.154;25.658;2023-06-19T05:03:40;100581.19;;;21.16
76713;BMP280;65640;43.154;25.658;2023-06-19T05:06:06;100578.28;;;21.52
76713;BMP280;65640;43.154;25.658;2023-06-19T05:08:32;100573.53;;;21.92
76713;BMP280;65640;43.154;25.658;2023-06-19T05:10:57;100573.50;;;22.08
76713;BMP280;65640;43.154;25.658;2023-06-19T05:13:25;100574.41;;;22.16
76713;BMP280;65640;43.154;25.658;2023-06-19T05:15:51;100580.88;;;22.34
76713;BMP280;65640;43.154;25.658;2023-06-19T05:18:17;100575.84;;;22.48
76713;BMP280;65640;43.154;25.658;2023-06-19T05:20:43;100576.63;;;22.68
76713;BMP280;65640;43.154;25.658;2023-06-19T05:23:09;100575.88;;;22.90
76713;BMP280;65640;43.154;25.658;2023-06-19T05:25:34;100574.28;;;22.85
76713;BMP280;65640;43.154;25.658;2023-06-19T05:27:59;100576.75;;;22.75
76713;BMP280;65640;43.154;25.658;2023-06-19T05:30:25;100564.94;;;22.76
76713;BMP280;65640;43.154;25.658;2023-06-19T05:32:50;100569.56;;;22.98
76713;BMP280;65640;43.154;25.658;2023-06-19T05:35:16;100570.22;;;23.37
76713;BMP280;65640;43.154;25.658;2023-06-19T05:37:41;100563.91;;;23.48
76713;BMP280;65640;43.154;25.658;2023-06-19T05:40:09;100569.63;;;23.73
76713;BMP280;65640;43.154;25.658;2023-06-19T05:42:36;100567.41;;;23.79
76713;BMP280;65640;43.154;25.658;2023-06-19T05:45:02;100570.22;;;23.60
76713;BMP280;65640;43.154;25.658;2023-06-19T05:47:28;100576.75;;;23.39
76713;BMP280;65640;43.154;25.658;2023-06-19T05:49:55;100582.69;;;23.29
76713;BMP280;65640;43.154;25.658;2023-06-19T05:52:21;100588.81;;;23.30
76713;BMP280;65640;43.154;25.658;2023-06-19T05:54:47;100578.91;;;23.30
76713;BMP280;65640;43.154;25.658;2023-06-19T05:57:13;100574.06;;;23.62
76713;BMP280;65640;43.154;25.658;2023-06-19T05:59:41;100577.16;;;23.94
76713;BMP280;65640;43.154;25.658;2023-06-19T06:02:07;100568.44;;;24.27
76713;BMP280;65640;43.154;25.658;2023-06-19T06:04:33;100567.91;;;24.47
76713;BMP280;65640;43.154;25.658;2023-06-19T06:06:59;100570.06;;;24.05
76713;BMP280;65640;43.154;25.658;2023-06-19T06:09:25;100567.38;;;24.05
76713;BMP280;65640;43.154;25.658;2023-06-19T06:11:50;100572.88;;;24.16
76713;BMP280;65640;43.154;25.658;2023-06-19T06:14:16;100573.59;;;24.46
76713;BMP280;65640;43.154;25.658;2023-06-19T06:16:41;100570.03;;;24.68
76713;BMP280;65640;43.154;25.658;2023-06-19T06:19:06;100562.84;;;24.79
76713;BMP280;65640;43.154;25.658;2023-06-19T06:21:32;100563.13;;;24.67
76713;BMP280;65640;43.154;25.658;2023-06-19T06:23:57;100560.41;;;24.63
76713;BMP280;65640;43.154;25.658;2023-06-19T06:26:23;100552.91;;;24.76
76713;BMP280;65640;43.154;25.658;2023-06-19T06:28:48;100558.00;;;24.92
76713;BMP280;65640;43.154;25.658;2023-06-19T06:31:13;100560.94;;;24.76
76713;BMP280;65640;43.154;25.658;2023-06-19T06:33:39;100560.66;;;24.88
76713;BMP280;65640;43.154;25.658;2023-06-19T06:36:04;100553.97;;;25.12
76713;BMP280;65640;43.154;25.658;2023-06-19T06:38:30;100554.53;;;25.39
76713;BMP280;65640;43.154;25.658;2023-06-19T06:40:55;100552.78;;;25.60
76713;BMP280;65640;43.154;25.658;2023-06-19T06:43:21;100552.03;;;25.70
76713;BMP280;65640;43.154;25.658;2023-06-19T06:45:46;100549.06;;;25.86
76713;BMP280;65640;43.154;25.658;2023-06-19T06:48:12;100553.19;;;25.73
76713;BMP280;65640;43.154;25.658;2023-06-19T06:50:37;100551.66;;;25.72
76713;BMP280;65640;43.154;25.658;2023-06-19T06:53:03;100549.75;;;25.72
76713;BMP280;65640;43.154;25.658;2023-06-19T06:55:28;100547.84;;;25.73
76713;BMP280;65640;43.154;25.658;2023-06-19T06:57:54;100553.00;;;25.34
76713;BMP280;65640;43.154;25.658;2023-06-19T07:00:19;100553.84;;;25.01
76713;BMP280;65640;43.154;25.658;2023-06-19T07:02:45;100555.88;;;25.11
76713;BMP280;65640;43.154;25.658;2023-06-19T07:05:13;100551.19;;;25.56
76713;BMP280;65640;43.154;25.658;2023-06-19T07:07:38;100551.69;;;25.75
76713;BMP280;65640;43.154;25.658;2023-06-19T07:10:04;100553.28;;;25.84
76713;BMP280;65640;43.154;25.658;2023-06-19T07:12:30;100559.16;;;26.10
76713;BMP280;65640;43.154;25.658;2023-06-19T07:14:55;100564.09;;;26.15
76713;BMP280;65640;43.154;25.658;2023-06-19T07:17:21;100564.53;;;26.24
76713;BMP280;65640;43.154;25.658;2023-06-19T07:19:47;100564.53;;;26.28
76713;BMP280;65640;43.154;25.658;2023-06-19T07:22:13;100571.81;;;26.20
76713;BMP280;65640;43.154;25.658;2023-06-19T07:24:40;100564.81;;;25.88
76713;BMP280;65640;43.154;25.658;2023-06-19T07:27:06;100563.31;;;26.01
76713;BMP280;65640;43.154;25.658;2023-06-19T07:29:31;100570.63;;;26.18
76713;BMP280;65640;43.154;25.658;2023-06-19T07:31:58;100571.38;;;26.04
76713;BMP280;65640;43.154;25.658;2023-06-19T07:34:23;100566.72;;;25.91
76713;BMP280;65640;43.154;25.658;2023-06-19T07:36:49;100574.44;;;26.03
76713;BMP280;65640;43.154;25.658;2023-06-19T07:39:15;100580.22;;;26.12
76713;BMP280;65640;43.154;25.658;2023-06-19T07:41:41;100572.47;;;25.89
76713;BMP280;65640;43.154;25.658;2023-06-19T07:44:06;100574.91;;;26.29
76713;BMP280;65640;43.154;25.658;2023-06-19T07:46:31;100571.38;;;26.15
76713;BMP280;65640;43.154;25.658;2023-06-19T07:48:57;100578.72;;;26.21
76713;BMP280;65640;43.154;25.658;2023-06-19T07:51:22;100574.16;;;26.40
76713;BMP280;65640;43.154;25.658;2023-06-19T07:53:48;100576.53;;;26.55
76713;BMP280;65640;43.154;25.658;2023-06-19T07:56:13;100578.81;;;26.53
76713;BMP280;65640;43.154;25.658;2023-06-19T07:58:39;100578.09;;;26.88
76713;BMP280;65640;43.154;25.658;2023-06-19T08:01:04;100570.78;;;27.20
76713;BMP280;65640;43.154;25.658;2023-06-19T08:03:29;100581.09;;;27.46
76713;BMP280;65640;43.154;25.658;2023-06-19T08:05:56;100581.91;;;27.33
76713;BMP280;65640;43.154;25.658;2023-06-19T08:08:21;100585.72;;;26.58
76713;BMP280;65640;43.154;25.658;2023-06-19T08:10:47;100583.38;;;26.39
76713;BMP280;65640;43.154;25.658;2023-06-19T08:13:12;100584.22;;;26.74
76713;BMP280;65640;43.154;25.658;2023-06-19T08:15:38;100583.47;;;26.91
76713;BMP280;65640;43.154;25.658;2023-06-19T08:18:03;100590.38;;;27.14
76713;BMP280;65640;43.154;25.658;2023-06-19T08:20:29;100591.88;;;26.86
76713;BMP280;65640;43.154;25.658;2023-06-19T08:22:54;100584.63;;;27.01
76713;BMP280;65640;43.154;25.658;2023-06-19T08:25:21;100584.59;;;27.19
76713;BMP280;65640;43.154;25.658;2023-06-19T08:27:47;100579.22;;;27.22
76713;BMP280;65640;43.154;25.658;2023-06-19T08:30:12;100576.53;;;27.22
76713;BMP280;65640;43.154;25.658;2023-06-19T08:32:37;100584.97;;;27.28
76713;BMP280;65640;43.154;25.658;2023-06-19T08:35:03;100586.50;;;26.86
76713;BMP280;65640;43.154;25.658;2023-06-19T08:37:29;100589.19;;;26.83
76713;BMP280;65640;43.154;25.658;2023-06-19T08:39:54;100585.72;;;27.32
76713;BMP280;65640;43.154;25.658;2023-06-19T08:42:21;100574.16;;;27.67
76713;BMP280;65640;43.154;25.658;2023-06-19T08:44:48;100583.31;;;27.73
76713;BMP280;65640;43.154;25.658;2023-06-19T08:47:14;100582.59;;;27.65
76713;BMP280;65640;43.154;25.658;2023-06-19T08:49:39;100587.19;;;27.68
76713;BMP280;65640;43.154;25.658;2023-06-19T08:52:05;100578.75;;;27.66
76713;BMP280;65640;43.154;25.658;2023-06-19T08:54:31;100587.28;;;27.26
76713;BMP280;65640;43.154;25.658;2023-06-19T08:57:03;100576.44;;;27.65
76713;BMP280;65640;43.154;25.658;2023-06-19T08:59:30;100579.81;;;27.86
76713;BMP280;65640;43.154;25.658;2023-06-19T09:01:57;100594.13;;;27.62
76713;BMP280;65640;43.154;25.658;2023-06-19T09:04:23;100592.63;;;27.54
76713;BMP280;65640;43.154;25.658;2023-06-19T09:06:51;100583.91;;;28.19
76713;BMP280;65640;43.154;25.658;2023-06-19T09:09:18;100581.00;;;28.54
76713;BMP280;65640;43.154;25.658;2023-06-19T09:12:06;100578.59;;;28.63
76713;BMP280;65640;43.154;25.658;2023-06-19T09:14:37;100573.91;;;29.12
76713;BMP280;65640;43.154;25.658;2023-06-19T09:17:04;100579.25;;;28.82
76713;BMP280;65640;43.154;25.658;2023-06-19T09:19:30;100575.47;;;28.13
76713;BMP280;65640;43.154;25.658;2023-06-19T09:22:05;100573.19;;;28.01
76713;BMP280;65640;43.154;25.658;2023-06-19T09:24:41;100569.34;;;28.13
76713;BMP280;65640;43.154;25.658;2023-06-19T09:27:09;100575.50;;;28.10
76713;BMP280;65640;43.154;25.658;2023-06-19T09:29:38;100579.38;;;27.95
76713;BMP280;65640;43.154;25.658;2023-06-19T09:32:33;100576.28;;;28.07
76713;BMP280;65640;43.154;25.658;2023-06-19T09:34:59;100574.31;;;28.07
76713;BMP280;65640;43.154;25.658;2023-06-19T09:37:25;100579.00;;;27.93
76713;BMP280;65640;43.154;25.658;2023-06-19T09:39:57;100571.63;;;28.15
76713;BMP280;65640;43.154;25.658;2023-06-19T09:42:35;100574.63;;;28.27
76713;BMP280;65640;43.154;25.658;2023-06-19T09:45:06;100580.09;;;28.64
76713;BMP280;65640;43.154;25.658;2023-06-19T09:47:43;100566.66;;;29.09
76713;BMP280;65640;43.154;25.658;2023-06-19T09:50:12;100570.25;;;28.95
76713;BMP280;65640;43.154;25.658;2023-06-19T09:52:40;100566.38;;;29.00
76713;BMP280;65640;43.154;25.658;2023-06-19T09:55:06;100561.16;;;28.20
76713;BMP280;65640;43.154;25.658;2023-06-19T09:57:34;100562.53;;;27.80
76713;BMP280;65640;43.154;25.658;2023-06-19T10:00:03;100561.69;;;27.94
76713;BMP280;65640;43.154;25.658;2023-06-19T10:02:39;100560.44;;;28.16
76713;BMP280;65640;43.154;25.658;2023-06-19T10:05:04;100563.84;;;28.27
76713;BMP280;65640;43.154;25.658;2023-06-19T10:07:33;100559.31;;;28.13
76713;BMP280;65640;43.154;25.658;2023-06-19T10:12:34;100562.28;;;28.33
76713;BMP280;65640;43.154;25.658;2023-06-19T10:15:18;100549.44;;;28.96
76713;BMP280;65640;43.154;25.658;2023-06-19T10:17:53;100554.72;;;29.44
76713;BMP280;65640;43.154;25.658;2023-06-19T10:20:25;100550.50;;;29.39
76713;BMP280;65640;43.154;25.658;2023-06-19T10:23:12;100554.28;;;28.70
76713;BMP280;65640;43.154;25.658;2023-06-19T10:25:40;100551.00;;;28.45
76713;BMP280;65640;43.154;25.658;2023-06-19T10:28:19;100552.44;;;27.95
76713;BMP280;65640;43.154;25.658;2023-06-19T10:30:45;100556.88;;;27.53
76713;BMP280;65640;43.154;25.658;2023-06-19T10:33:10;100545.34;;;27.46
76713;BMP280;65640;43.154;25.658;2023-06-19T10:35:39;100538.50;;;28.18
76713;BMP280;65640;43.154;25.658;2023-06-19T10:38:05;100538.06;;;28.78
76713;BMP280;65640;43.154;25.658;2023-06-19T10:40:30;100530.03;;;29.08
76713;BMP280;65640;43.154;25.658;2023-06-19T10:42:56;100529.41;;;28.97
76713;BMP280;65640;43.154;25.658;2023-06-19T10:45:21;100530.25;;;28.87
76713;BMP280;65640;43.154;25.658;2023-06-19T10:47:53;100523.25;;;28.93
76713;BMP280;65640;43.154;25.658;2023-06-19T10:50:19;100515.75;;;29.45
76713;BMP280;65640;43.154;25.658;2023-06-19T10:52:45;100508.28;;;29.86
76713;BMP280;65640;43.154;25.658;2023-06-19T10:55:12;100519.50;;;30.08
76713;BMP280;65640;43.154;25.658;2023-06-19T10:57:38;100508.63;;;30.15
76713;BMP280;65640;43.154;25.658;2023-06-19T11:00:05;100505.66;;;30.06
76713;BMP280;65640;43.154;25.658;2023-06-19T11:02:38;100496.28;;;30.14
76713;BMP280;65640;43.154;25.658;2023-06-19T11:05:05;100493.19;;;30.15
76713;BMP280;65640;43.154;25.658;2023-06-19T11:07:31;100490.22;;;29.79
76713;BMP280;65640;43.154;25.658;2023-06-19T11:09:57;100488.56;;;29.59
76713;BMP280;65640;43.154;25.658;2023-06-19T11:12:22;100490.03;;;29.93
76713;BMP280;65640;43.154;25.658;2023-06-19T11:14:48;100501.75;;;29.53
76713;BMP280;65640;43.154;25.658;2023-06-19T11:17:14;100498.56;;;29.31
76713;BMP280;65640;43.154;25.658;2023-06-19T11:19:39;100503.13;;;29.38
76713;BMP280;65640;43.154;25.658;2023-06-19T11:22:07;100498.94;;;29.30
76713;BMP280;65640;43.154;25.658;2023-06-19T11:24:32;100503.03;;;29.45
76713;BMP280;65640;43.154;25.658;2023-06-19T11:26:58;100494.41;;;29.54
76713;BMP280;65640;43.154;25.658;2023-06-19T11:29:30;100498.97;;;28.96
76713;BMP280;65640;43.154;25.658;2023-06-19T11:32:07;100501.91;;;28.71
76713;BMP280;65640;43.154;25.658;2023-06-19T11:34:34;100509.59;;;28.73
76713;BMP280;65640;43.154;25.658;2023-06-19T11:37:17;100510.56;;;28.52
76713;BMP280;65640;43.154;25.658;2023-06-19T11:39:47;100505.81;;;29.04
76713;BMP280;65640;43.154;25.658;2023-06-19T11:42:13;100510.34;;;29.45
76713;BMP280;65640;43.154;25.658;2023-06-19T11:44:56;100512.72;;;29.39
76713;BMP280;65640;43.154;25.658;2023-06-19T11:47:22;100510.53;;;29.27
76713;BMP280;65640;43.154;25.658;2023-06-19T11:49:48;100500.94;;;28.89
76713;BMP280;65640;43.154;25.658;2023-06-19T11:52:14;100505.88;;;29.31
76713;BMP280;65640;43.154;25.658;2023-06-19T11:54:40;100508.16;;;29.32
76713;BMP280;65640;43.154;25.658;2023-06-19T11:57:05;100503.94;;;29.35
76713;BMP280;65640;43.154;25.658;2023-06-19T11:59:31;100486.50;;;29.43
76713;BMP280;65640;43.154;25.658;2023-06-19T12:01:56;100471.53;;;29.65
76713;BMP280;65640;43.154;25.658;2023-06-19T12:04:23;100474.63;;;29.90
76713;BMP280;65640;43.154;25.658;2023-06-19T12:06:49;100456.16;;;30.12
76713;BMP280;65640;43.154;25.658;2023-06-19T12:09:14;100450.63;;;30.19
76713;BMP280;65640;43.154;25.658;2023-06-19T12:11:40;100440.81;;;30.52
76713;BMP280;65640;43.154;25.658;2023-06-19T12:14:05;100436.28;;;30.45
76713;BMP280;65640;43.154;25.658;2023-06-19T12:16:31;100439.09;;;30.38
76713;BMP280;65640;43.154;25.658;2023-06-19T12:18:56;100434.81;;;30.41
76713;BMP280;65640;43.154;25.658;2023-06-19T12:21:21;100426.06;;;29.64
76713;BMP280;65640;43.154;25.658;2023-06-19T12:23:48;100434.91;;;29.38
76713;BMP280;65640;43.154;25.658;2023-06-19T12:26:13;100443.09;;;29.57
76713;BMP280;65640;43.154;25.658;2023-06-19T12:28:38;100447.03;;;30.02
76713;BMP280;65640;43.154;25.658;2023-06-19T12:31:04;100443.41;;;30.36
76713;BMP280;65640;43.154;25.658;2023-06-19T12:33:29;100430.00;;;30.29
76713;BMP280;65640;43.154;25.658;2023-06-19T12:35:58;100433.03;;;30.74
76713;BMP280;65640;43.154;25.658;2023-06-19T12:38:24;100430.31;;;31.13
76713;BMP280;65640;43.154;25.658;2023-06-19T12:40:49;100434.78;;;31.19
76713;BMP280;65640;43.154;25.658;2023-06-19T12:43:15;100429.84;;;30.98
76713;BMP280;65640;43.154;25.658;2023-06-19T12:45:40;100421.13;;;31.07
76713;BMP280;65640;43.154;25.658;2023-06-19T12:48:07;100424.13;;;31.12
76713;BMP280;65640;43.154;25.658;2023-06-19T12:50:32;100428.94;;;30.46
76713;BMP280;65640;43.154;25.658;2023-06-19T12:52:58;100426.00;;;29.90
76713;BMP280;65640;43.154;25.658;2023-06-19T12:55:23;100429.91;;;29.63
76713;BMP280;65640;43.154;25.658;2023-06-19T12:57:49;100424.00;;;29.94
76713;BMP280;65640;43.154;25.658;2023-06-19T13:00:14;100428.00;;;29.86
76713;BMP280;65640;43.154;25.658;2023-06-19T13:02:40;100434.19;;;29.60
76713;BMP280;65640;43.154;25.658;2023-06-19T13:05:08;100436.63;;;29.21
76713;BMP280;65640;43.154;25.658;2023-06-19T13:07:34;100449.66;;;28.96
76713;BMP280;65640;43.154;25.658;2023-06-19T13:09:59;100447.03;;;28.89
76713;BMP280;65640;43.154;25.658;2023-06-19T13:12:24;100451.34;;;28.42
76713;BMP280;65640;43.154;25.658;2023-06-19T13:14:50;100470.75;;;27.57
76713;BMP280;65640;43.154;25.658;2023-06-19T13:17:15;100481.63;;;27.29
76713;BMP280;65640;43.154;25.658;2023-06-19T13:19:40;100488.19;;;27.14
76713;BMP280;65640;43.154;25.658;2023-06-19T13:22:06;100483.19;;;27.05
76713;BMP280;65640;43.154;25.658;2023-06-19T13:24:31;100482.06;;;27.06
76713;BMP280;65640;43.154;25.658;2023-06-19T13:26:57;100489.75;;;27.04
76713;BMP280;65640;43.154;25.658;2023-06-19T13:29:22;100484.38;;;27.04
76713;BMP280;65640;43.154;25.658;2023-06-19T13:31:47;100485.16;;;27.01
76713;BMP280;65640;43.154;25.658;2023-06-19T13:34:13;100484.75;;;26.96
76713;BMP280;65640;43.154;25.658;2023-06-19T13:36:38;100500.16;;;26.74
76713;BMP280;65640;43.154;25.658;2023-06-19T13:39:05;100525.84;;;26.57
76713;BMP280;65640;43.154;25.658;2023-06-19T13:41:30;100532.72;;;26.37
76713;BMP280;65640;43.154;25.658;2023-06-19T13:43:58;100541.03;;;25.93